createdAt,value
2023-05-10T00:01:35.322Z,11.60
2023-05-10T00:04:02.331Z,11.68
2023-05-10T00:06:29.237Z,11.78
2023-05-10T00:08:56.222Z,11.85
2023-05-10T00:11:23.334Z,11.99
2023-05-10T00:13:50.795Z,12.07
2023-05-10T00:16:17.884Z,12.14
2023-05-10T00:18:44.857Z,12.18
2023-05-10T00:21:11.738Z,12.26
2023-05-10T00:23:38.865Z,12.35
2023-05-10T00:26:05.811Z,12.27
2023-05-10T00:28:32.824Z,12.29
2023-05-10T00:30:59.702Z,12.36
2023-05-10T00:33:26.954Z,12.27
2023-05-10T00:35:53.804Z,12.27
2023-05-10T00:38:20.800Z,12.26
2023-05-10T00:40:47.781Z,12.32
2023-05-10T00:43:23.044Z,12.39
2023-05-10T00:45:50.829Z,12.35
2023-05-10T00:48:18.064Z,12.29
2023-05-10T00:50:45.921Z,12.36
2023-05-10T00:53:13.442Z,12.42
2023-05-10T00:55:40.599Z,12.37
2023-05-10T00:58:07.709Z,12.36
2023-05-10T01:00:35.405Z,12.32
2023-05-10T01:03:02.945Z,12.27
2023-05-10T01:05:30.051Z,12.27
2023-05-10T01:07:58.173Z,12.28
2023-05-10T01:10:25.307Z,12.32
2023-05-10T01:12:52.363Z,12.33
2023-05-10T01:15:21.059Z,12.41
2023-05-10T01:17:49.426Z,12.56
2023-05-10T01:20:17.018Z,12.60
2023-05-10T01:23:00.433Z,12.56
2023-05-10T01:25:52.377Z,12.58
2023-05-10T01:28:55.865Z,12.52
2023-05-10T01:31:34.954Z,12.58
2023-05-10T01:34:20.265Z,12.56
2023-05-10T01:36:56.482Z,12.56
2023-05-10T01:39:33.888Z,12.61
2023-05-10T01:42:06.946Z,12.68
2023-05-10T01:44:46.492Z,12.73
2023-05-10T01:47:33.468Z,12.70
2023-05-10T01:50:04.507Z,12.63
2023-05-10T01:52:42.210Z,12.57
2023-05-10T01:55:14.983Z,12.64
2023-05-10T01:57:44.992Z,12.47
2023-05-10T02:00:14.955Z,12.41
2023-05-10T02:02:50.882Z,12.33
2023-05-10T02:05:19.174Z,12.22
2023-05-10T02:07:46.864Z,12.14
2023-05-10T02:10:15.772Z,12.06
2023-05-10T02:12:46.089Z,11.97
2023-05-10T02:15:16.781Z,11.96
2023-05-10T02:17:45.589Z,11.85
2023-05-10T02:20:14.024Z,11.85
2023-05-10T02:22:42.984Z,11.97
2023-05-10T02:25:12.938Z,12.03
2023-05-10T02:27:40.094Z,12.05
2023-05-10T02:30:09.312Z,12.06
2023-05-10T02:32:37.934Z,12.05
2023-05-10T02:35:05.627Z,12.07
2023-05-10T02:37:33.549Z,12.04
2023-05-10T02:40:01.677Z,12.00
2023-05-10T02:42:32.337Z,11.99
2023-05-10T02:45:02.290Z,12.13
2023-05-10T02:47:30.229Z,12.23
2023-05-10T02:49:57.239Z,12.24
2023-05-10T02:52:34.775Z,12.22
2023-05-10T02:55:04.313Z,12.21
2023-05-10T02:57:35.078Z,12.22
2023-05-10T03:00:04.460Z,12.15
2023-05-10T03:02:32.224Z,12.07
2023-05-10T03:04:59.968Z,12.15
2023-05-10T03:07:27.564Z,12.27
2023-05-10T03:09:54.625Z,12.29
2023-05-10T03:12:24.339Z,12.30
2023-05-10T03:15:09.323Z,12.37
2023-05-10T03:18:18.227Z,12.48
2023-05-10T03:20:50.304Z,12.36
2023-05-10T03:23:35.419Z,12.38
2023-05-10T03:26:06.101Z,12.41
2023-05-10T03:28:35.286Z,12.50
2023-05-10T03:31:05.793Z,12.46
2023-05-10T03:33:33.743Z,12.45
2023-05-10T03:36:00.660Z,12.48
2023-05-10T03:38:29.736Z,12.52
2023-05-10T03:40:57.951Z,12.57
2023-05-10T03:43:24.934Z,12.57
2023-05-10T03:45:52.647Z,12.54
2023-05-10T03:48:19.726Z,12.60
2023-05-10T03:50:47.043Z,12.59
2023-05-10T03:53:14.301Z,12.64
2023-05-10T03:55:41.344Z,12.56
2023-05-10T03:58:12.503Z,12.49
2023-05-10T04:00:44.818Z,12.42
2023-05-10T04:03:12.958Z,12.42
2023-05-10T04:05:40.174Z,12.56
2023-05-10T04:08:07.942Z,12.55
2023-05-10T04:10:34.955Z,12.57
2023-05-10T04:13:02.215Z,12.61
2023-05-10T04:15:29.244Z,12.58
2023-05-10T04:17:56.240Z,12.61
2023-05-10T04:20:23.180Z,12.66
2023-05-10T04:22:50.072Z,12.68
2023-05-10T04:25:16.949Z,12.75
2023-05-10T04:27:43.915Z,12.62
2023-05-10T04:30:11.856Z,12.64
2023-05-10T04:32:38.810Z,12.59
2023-05-10T04:35:06.191Z,12.67
2023-05-10T04:37:33.113Z,12.76
2023-05-10T04:40:01.247Z,12.72
2023-05-10T04:42:28.262Z,12.69
2023-05-10T04:44:55.263Z,12.84
2023-05-10T04:47:22.363Z,12.80
2023-05-10T04:49:49.316Z,12.77
2023-05-10T04:52:18.566Z,12.80
2023-05-10T04:54:45.592Z,12.94
2023-05-10T04:57:12.697Z,13.27
2023-05-10T04:59:39.696Z,14.30
2023-05-10T05:02:07.022Z,14.82
2023-05-10T05:04:33.987Z,15.14
2023-05-10T05:07:00.894Z,15.68
2023-05-10T05:09:27.870Z,16.24
2023-05-10T05:11:54.786Z,16.97
2023-05-10T05:14:26.334Z,16.86
2023-05-10T05:16:54.201Z,16.81
2023-05-10T05:19:21.197Z,16.27
2023-05-10T05:21:48.117Z,15.54
2023-05-10T05:24:15.175Z,15.02
2023-05-10T05:26:42.798Z,14.84
2023-05-10T05:29:09.955Z,15.00
2023-05-10T05:31:37.213Z,14.84
2023-05-10T05:34:04.170Z,14.95
2023-05-10T05:36:32.643Z,14.68
2023-05-10T05:38:59.632Z,15.04
2023-05-10T05:41:27.234Z,16.13
2023-05-10T05:43:54.255Z,16.54
2023-05-10T05:46:21.287Z,16.35
2023-05-10T05:48:48.327Z,15.94
2023-05-10T05:51:15.381Z,16.36
2023-05-10T05:53:42.357Z,16.35
2023-05-10T05:56:10.553Z,15.88
2023-05-10T05:58:37.573Z,14.95
2023-05-10T06:01:04.679Z,14.75
2023-05-10T06:03:31.920Z,14.88
2023-05-10T06:05:58.933Z,14.78
2023-05-10T06:08:26.061Z,14.53
2023-05-10T06:10:53.036Z,14.77
2023-05-10T06:13:20.032Z,14.77
2023-05-10T06:15:47.530Z,14.38
2023-05-10T06:18:14.422Z,14.59
2023-05-10T06:20:43.247Z,14.97
2023-05-10T06:23:10.209Z,15.08
2023-05-10T06:25:37.185Z,14.73
2023-05-10T06:28:04.116Z,14.71
2023-05-10T06:30:31.112Z,14.89
2023-05-10T06:32:58.335Z,14.97
2023-05-10T06:35:25.492Z,15.03
2023-05-10T06:37:52.771Z,14.59
2023-05-10T06:40:20.465Z,14.68
2023-05-10T06:42:49.278Z,14.89
2023-05-10T06:45:17.115Z,15.00
2023-05-10T06:47:44.690Z,14.97
2023-05-10T06:50:14.932Z,14.83
2023-05-10T06:52:42.129Z,14.86
2023-05-10T06:55:10.012Z,15.13
2023-05-10T06:57:37.030Z,15.30
2023-05-10T07:00:06.254Z,15.48
2023-05-10T07:02:33.321Z,15.71
2023-05-10T07:05:02.772Z,15.83
2023-05-10T07:07:30.562Z,16.48
2023-05-10T07:09:58.810Z,16.66
2023-05-10T07:12:26.717Z,16.90
2023-05-10T07:14:53.802Z,16.47
2023-05-10T07:17:21.157Z,16.80
2023-05-10T07:19:48.203Z,16.65
2023-05-10T07:22:16.235Z,16.41
2023-05-10T07:24:43.382Z,16.20
2023-05-10T07:27:10.485Z,16.55
2023-05-10T07:29:37.576Z,16.27
2023-05-10T07:32:04.703Z,16.30
2023-05-10T07:34:32.913Z,16.10
2023-05-10T07:37:00.693Z,16.55
2023-05-10T07:39:28.726Z,16.62
2023-05-10T07:41:57.097Z,16.84
2023-05-10T07:44:24.475Z,16.94
2023-05-10T07:46:51.788Z,16.98
2023-05-10T07:49:18.898Z,16.74
2023-05-10T07:51:45.997Z,16.25
2023-05-10T07:54:13.899Z,16.33
2023-05-10T07:56:43.136Z,16.52
2023-05-10T07:59:12.069Z,16.87
2023-05-10T08:01:39.761Z,16.75
2023-05-10T08:04:06.765Z,16.57
2023-05-10T08:06:33.992Z,17.08
2023-05-10T08:09:01.067Z,17.09
2023-05-10T08:11:29.104Z,17.51
2023-05-10T08:13:56.107Z,17.99
2023-05-10T08:16:23.485Z,17.98
2023-05-10T08:18:51.968Z,17.88
2023-05-10T08:21:19.216Z,18.26
2023-05-10T08:23:46.231Z,18.28
2023-05-10T08:26:13.283Z,18.22
2023-05-10T08:28:40.307Z,18.29
2023-05-10T08:31:07.692Z,18.68
2023-05-10T08:33:34.766Z,18.28
2023-05-10T08:36:01.763Z,18.39
2023-05-10T08:38:28.628Z,18.50
2023-05-10T08:40:59.972Z,18.62
2023-05-10T08:43:30.215Z,18.65
2023-05-10T08:45:58.211Z,19.14
2023-05-10T08:48:26.214Z,18.35
2023-05-10T08:50:57.284Z,18.59
2023-05-10T08:53:27.845Z,18.70
2023-05-10T08:55:55.306Z,18.02
2023-05-10T08:58:22.629Z,18.39
2023-05-10T09:00:52.222Z,18.43
2023-05-10T09:03:19.323Z,18.24
2023-05-10T09:05:46.509Z,18.32
2023-05-10T09:08:15.713Z,18.37
2023-05-10T09:10:44.946Z,18.47
2023-05-10T09:13:15.347Z,18.59
2023-05-10T09:15:42.653Z,18.33
2023-05-10T09:18:09.715Z,18.32
2023-05-10T09:20:36.907Z,17.80
2023-05-10T09:23:03.875Z,17.56
2023-05-10T09:25:30.978Z,17.18
2023-05-10T09:28:00.540Z,17.49
2023-05-10T09:30:29.630Z,17.98
2023-05-10T09:32:58.194Z,18.38
2023-05-10T09:35:29.688Z,18.21
2023-05-10T09:37:59.131Z,18.72
2023-05-10T09:40:27.588Z,18.72
2023-05-10T09:42:57.633Z,18.85
2023-05-10T09:45:26.285Z,19.01
2023-05-10T09:47:53.396Z,18.55
2023-05-10T09:50:21.778Z,18.89
2023-05-10T09:52:57.322Z,18.80
2023-05-10T09:55:25.913Z,18.62
2023-05-10T09:58:03.532Z,18.77
2023-05-10T10:00:36.746Z,18.73
2023-05-10T10:03:04.651Z,18.32
2023-05-10T10:05:33.497Z,18.37
2023-05-10T10:08:01.936Z,18.05
2023-05-10T10:10:29.826Z,18.00
2023-05-10T10:13:00.786Z,18.03
2023-05-10T10:15:27.834Z,17.86
2023-05-10T10:17:55.598Z,17.88
2023-05-10T10:20:24.056Z,17.92
2023-05-10T10:22:51.019Z,18.28
2023-05-10T10:25:23.332Z,18.21
2023-05-10T10:27:53.415Z,17.92
2023-05-10T10:30:38.906Z,18.07
2023-05-10T10:33:46.876Z,18.20
2023-05-10T10:36:16.671Z,18.71
2023-05-10T10:38:49.634Z,18.55
2023-05-10T10:41:49.884Z,18.00
2023-05-10T10:44:38.134Z,17.96
2023-05-10T10:47:24.429Z,17.87
2023-05-10T10:49:52.997Z,18.08
2023-05-10T10:52:35.498Z,18.49
2023-05-10T10:55:05.350Z,18.00
2023-05-10T10:57:46.453Z,17.91
2023-05-10T11:00:21.270Z,17.76
2023-05-10T11:02:52.809Z,17.92
2023-05-10T11:05:36.252Z,17.51
2023-05-10T11:08:19.746Z,17.95
2023-05-10T11:11:05.216Z,17.87
2023-05-10T11:13:34.539Z,18.09
2023-05-10T11:16:22.935Z,18.11
2023-05-10T11:19:03.508Z,18.14
2023-05-10T11:21:32.158Z,18.53
2023-05-10T11:24:01.196Z,18.31
2023-05-10T11:26:38.686Z,18.11
2023-05-10T11:29:06.273Z,17.79
2023-05-10T11:31:33.837Z,17.82
2023-05-10T11:34:04.701Z,17.30
2023-05-10T11:36:37.316Z,17.32
2023-05-10T11:39:05.539Z,17.41
2023-05-10T11:41:32.887Z,17.57
2023-05-10T11:44:00.582Z,17.52
2023-05-10T11:46:29.622Z,17.28
2023-05-10T11:49:03.042Z,17.31
2023-05-10T11:51:30.515Z,17.43
2023-05-10T11:53:58.484Z,17.44
2023-05-10T11:56:27.461Z,17.43
2023-05-10T11:58:58.060Z,17.35
2023-05-10T12:01:29.099Z,17.19
2023-05-10T12:04:02.498Z,17.03
2023-05-10T12:06:32.476Z,17.02
2023-05-10T12:09:00.059Z,17.28
2023-05-10T12:11:28.634Z,17.30
2023-05-10T12:13:57.785Z,17.43
2023-05-10T12:16:29.416Z,17.53
2023-05-10T12:19:01.883Z,17.43
2023-05-10T12:21:31.863Z,17.42
2023-05-10T12:24:04.849Z,17.42
2023-05-10T12:26:32.481Z,17.47
2023-05-10T12:29:20.204Z,17.43
2023-05-10T12:31:58.116Z,17.65
2023-05-10T12:34:36.199Z,17.65
2023-05-10T12:37:04.404Z,17.91
2023-05-10T12:39:45.498Z,18.08
2023-05-10T12:42:12.825Z,18.02
2023-05-10T12:44:40.518Z,18.05
2023-05-10T12:47:07.704Z,17.70
2023-05-10T12:49:35.302Z,17.68
2023-05-10T12:52:02.533Z,17.65
2023-05-10T12:54:29.444Z,17.64
2023-05-10T12:56:56.414Z,17.32
2023-05-10T12:59:24.036Z,17.30
2023-05-10T13:01:51.034Z,17.45
2023-05-10T13:04:18.070Z,17.70
2023-05-10T13:06:45.136Z,17.73
2023-05-10T13:09:13.440Z,17.94
2023-05-10T13:11:40.802Z,18.03
2023-05-10T13:14:08.255Z,18.22
2023-05-10T13:16:35.705Z,18.13
2023-05-10T13:19:02.758Z,18.19
2023-05-10T13:21:29.826Z,18.42
2023-05-10T13:23:57.949Z,18.25
2023-05-10T13:26:25.162Z,18.05
2023-05-10T13:28:52.985Z,18.18
2023-05-10T13:31:20.245Z,18.40
2023-05-10T13:33:47.315Z,18.27
2023-05-10T13:36:14.455Z,18.56
2023-05-10T13:38:41.412Z,18.32
2023-05-10T13:41:08.383Z,18.20
2023-05-10T13:43:35.262Z,18.19
2023-05-10T13:46:02.905Z,18.60
2023-05-10T13:48:29.911Z,18.85
2023-05-10T13:50:57.272Z,19.06
2023-05-10T13:53:24.417Z,19.12
2023-05-10T13:55:52.423Z,19.17
2023-05-10T13:58:19.295Z,19.34
2023-05-10T14:00:46.305Z,19.12
2023-05-10T14:03:13.398Z,18.89
2023-05-10T14:05:40.489Z,18.94
2023-05-10T14:08:08.651Z,19.35
2023-05-10T14:10:35.637Z,18.67
2023-05-10T14:13:02.634Z,18.66
2023-05-10T14:15:29.822Z,18.35
2023-05-10T14:17:56.865Z,18.14
2023-05-10T14:20:23.836Z,18.12
2023-05-10T14:22:50.832Z,18.39
2023-05-10T14:25:18.056Z,18.34
2023-05-10T14:27:45.246Z,18.02
2023-05-10T14:30:12.917Z,18.18
2023-05-10T14:32:39.875Z,18.13
2023-05-10T14:35:07.421Z,18.27
2023-05-10T14:37:34.662Z,17.73
2023-05-10T14:40:01.689Z,17.76
2023-05-10T14:42:29.642Z,17.74
2023-05-10T14:44:56.585Z,17.62
2023-05-10T14:47:23.688Z,17.76
2023-05-10T14:49:50.812Z,18.31
2023-05-10T14:52:18.531Z,18.28
2023-05-10T14:54:45.560Z,18.02
2023-05-10T14:57:12.491Z,18.23
2023-05-10T14:59:39.549Z,18.33
2023-05-10T15:02:09.437Z,18.53
2023-05-10T15:04:37.005Z,18.17
2023-05-10T15:07:04.519Z,18.11
2023-05-10T15:09:32.581Z,17.89
2023-05-10T15:11:59.587Z,17.69
2023-05-10T15:14:26.580Z,17.86
2023-05-10T15:16:53.549Z,17.44
2023-05-10T15:19:21.148Z,16.99
2023-05-10T15:21:48.534Z,17.03
2023-05-10T15:24:15.796Z,17.04
2023-05-10T15:26:42.806Z,17.16
2023-05-10T15:29:09.875Z,17.51
2023-05-10T15:31:37.197Z,17.42
2023-05-10T15:34:04.260Z,17.45
2023-05-10T15:36:32.974Z,17.08
2023-05-10T15:38:59.910Z,16.82
2023-05-10T15:41:26.933Z,17.02
2023-05-10T15:43:55.357Z,16.94
2023-05-10T15:46:22.902Z,16.88
2023-05-10T15:48:49.922Z,16.80
2023-05-10T15:51:16.883Z,16.80
2023-05-10T15:53:56.438Z,16.38
2023-05-10T15:56:27.928Z,16.42
2023-05-10T15:58:55.075Z,16.31
2023-05-10T16:01:22.171Z,16.19
2023-05-10T16:03:49.190Z,16.22
2023-05-10T16:06:16.166Z,16.04
2023-05-10T16:08:43.220Z,15.70
2023-05-10T16:11:10.203Z,15.48
2023-05-10T16:13:37.203Z,15.56
2023-05-10T16:16:05.450Z,15.37
2023-05-10T16:18:32.920Z,15.50
2023-05-10T16:21:00.033Z,15.33
2023-05-10T16:23:27.051Z,15.22
2023-05-10T16:25:54.632Z,15.11
2023-05-10T16:28:22.011Z,15.04
2023-05-10T16:30:49.271Z,14.99
2023-05-10T16:33:16.967Z,15.03
2023-05-10T16:35:44.308Z,15.02
2023-05-10T16:38:11.631Z,14.90
2023-05-10T16:40:38.786Z,14.84
2023-05-10T16:43:05.919Z,14.79
2023-05-10T16:45:32.955Z,14.95
2023-05-10T16:48:00.044Z,14.77
2023-05-10T16:50:27.189Z,14.94
2023-05-10T16:52:55.273Z,14.83
2023-05-10T16:55:24.749Z,14.78
2023-05-10T16:57:53.092Z,14.60
2023-05-10T17:00:21.100Z,14.75
2023-05-10T17:02:48.913Z,14.71
2023-05-10T17:05:16.485Z,14.65
2023-05-10T17:07:43.529Z,14.77
2023-05-10T17:10:11.140Z,14.56
2023-05-10T17:12:38.242Z,14.58
2023-05-10T17:15:06.408Z,14.55
2023-05-10T17:17:33.391Z,14.47
2023-05-10T17:20:00.794Z,14.31
2023-05-10T17:22:27.765Z,14.19
2023-05-10T17:24:54.854Z,14.11
2023-05-10T17:27:21.887Z,14.14
2023-05-10T17:29:48.789Z,14.04
2023-05-10T17:32:15.704Z,13.99
2023-05-10T17:34:42.672Z,13.87
2023-05-10T17:37:09.682Z,13.87
2023-05-10T17:39:38.673Z,13.76
2023-05-10T17:42:06.880Z,13.68
2023-05-10T17:44:33.765Z,13.69
2023-05-10T17:47:00.806Z,13.63
2023-05-10T17:49:29.057Z,13.61
2023-05-10T17:51:56.188Z,13.69
2023-05-10T17:54:23.139Z,13.66
2023-05-10T17:56:50.178Z,13.70
2023-05-10T17:59:17.161Z,13.67
2023-05-10T18:01:44.333Z,13.65
2023-05-10T18:04:11.420Z,13.63
2023-05-10T18:06:38.453Z,13.60
2023-05-10T18:09:07.490Z,13.60
2023-05-10T18:11:38.852Z,13.56
2023-05-10T18:14:05.949Z,13.53
2023-05-10T18:16:33.133Z,13.50
2023-05-10T18:19:00.261Z,13.52
2023-05-10T18:21:27.274Z,13.49
2023-05-10T18:23:54.373Z,13.43
2023-05-10T18:26:21.424Z,13.42
2023-05-10T18:28:48.366Z,13.45
2023-05-10T18:31:15.280Z,13.39
2023-05-10T18:33:42.370Z,13.45
2023-05-10T18:36:09.404Z,13.42
2023-05-10T18:38:36.537Z,13.42
2023-05-10T18:41:03.965Z,13.45
2023-05-10T18:43:30.875Z,13.45
2023-05-10T18:45:57.784Z,13.45
2023-05-10T18:48:24.889Z,13.49
2023-05-10T18:50:51.751Z,13.52
2023-05-10T18:53:18.848Z,13.47
2023-05-10T18:55:46.647Z,13.48
2023-05-10T18:58:13.800Z,13.46
2023-05-10T19:00:40.762Z,13.44
2023-05-10T19:03:07.799Z,13.41
2023-05-10T19:05:34.795Z,13.34
2023-05-10T19:08:01.769Z,13.35
2023-05-10T19:10:28.729Z,13.33
2023-05-10T19:12:55.811Z,13.27
2023-05-10T19:15:22.987Z,13.25
2023-05-10T19:17:50.146Z,13.18
2023-05-10T19:20:17.816Z,13.16
2023-05-10T19:23:02.076Z,13.15
2023-05-10T19:25:33.704Z,13.14
2023-05-10T19:28:00.653Z,13.11
2023-05-10T19:30:30.813Z,13.10
2023-05-10T19:32:58.184Z,13.11
2023-05-10T19:35:25.303Z,13.16
2023-05-10T19:37:52.662Z,13.19
2023-05-10T19:40:20.049Z,13.12
2023-05-10T19:42:47.210Z,13.11
2023-05-10T19:45:16.228Z,13.10
2023-05-10T19:47:44.048Z,13.08
2023-05-10T19:50:12.695Z,13.17
2023-05-10T19:52:39.775Z,13.15
2023-05-10T19:55:07.401Z,13.13
2023-05-10T19:57:34.401Z,13.14
2023-05-10T20:00:01.398Z,13.18
2023-05-10T20:02:28.398Z,13.29
2023-05-10T20:04:55.429Z,13.20
2023-05-10T20:07:22.330Z,13.21
2023-05-10T20:09:49.416Z,13.16
2023-05-10T20:12:16.343Z,13.15
2023-05-10T20:14:43.244Z,13.14
2023-05-10T20:17:10.275Z,13.09
2023-05-10T20:19:37.252Z,13.10
2023-05-10T20:22:05.621Z,13.08
2023-05-10T20:24:32.685Z,13.08
2023-05-10T20:27:00.103Z,13.10
2023-05-10T20:29:28.312Z,13.14
2023-05-10T20:31:56.761Z,13.09
2023-05-10T20:34:23.733Z,13.07
2023-05-10T20:36:53.629Z,13.07
2023-05-10T20:39:20.749Z,13.03
2023-05-10T20:41:47.872Z,13.01
2023-05-10T20:44:14.813Z,12.98
2023-05-10T20:46:42.003Z,13.03
2023-05-10T20:49:09.374Z,13.07
2023-05-10T20:51:36.422Z,13.05
2023-05-10T20:54:04.610Z,13.08
2023-05-10T20:56:31.642Z,13.05
2023-05-10T20:58:58.637Z,12.99
2023-05-10T21:01:25.839Z,12.96
2023-05-10T21:03:52.886Z,12.99
2023-05-10T21:06:20.195Z,13.03
2023-05-10T21:08:47.584Z,13.02
2023-05-10T21:11:14.710Z,13.02
2023-05-10T21:13:41.801Z,13.09
2023-05-10T21:16:08.809Z,13.07
2023-05-10T21:18:36.320Z,12.98
2023-05-10T21:21:03.410Z,13.01
2023-05-10T21:23:33.821Z,13.05
2023-05-10T21:26:03.703Z,13.03
2023-05-10T21:28:31.024Z,13.01
2023-05-10T21:30:57.935Z,12.98
2023-05-10T21:33:24.874Z,13.04
2023-05-10T21:35:51.862Z,13.05
2023-05-10T21:38:18.833Z,13.07
2023-05-10T21:40:45.749Z,13.08
2023-05-10T21:43:12.973Z,13.13
2023-05-10T21:45:40.106Z,13.16
2023-05-10T21:48:07.292Z,13.10
2023-05-10T21:50:34.240Z,13.07
2023-05-10T21:53:01.516Z,13.08
2023-05-10T21:55:31.577Z,13.13
2023-05-10T21:57:58.856Z,13.10
2023-05-10T22:00:25.761Z,13.11
2023-05-10T22:02:52.888Z,13.13
2023-05-10T22:05:19.963Z,13.15
2023-05-10T22:07:47.037Z,13.17
2023-05-10T22:10:13.918Z,13.26
2023-05-10T22:12:41.135Z,13.23
2023-05-10T22:15:10.794Z,13.21
2023-05-10T22:17:39.889Z,13.22
2023-05-10T22:20:08.730Z,13.25
2023-05-10T22:22:36.807Z,13.27
2023-05-10T22:25:05.620Z,13.21
2023-05-10T22:27:32.568Z,13.19
2023-05-10T22:29:59.444Z,13.21
2023-05-10T22:32:26.392Z,13.17
2023-05-10T22:34:53.383Z,13.15
2023-05-10T22:37:20.349Z,13.15
2023-05-10T22:39:47.298Z,13.17
2023-05-10T22:42:14.352Z,13.17
2023-05-10T22:44:41.564Z,13.16
2023-05-10T22:47:09.252Z,13.14
2023-05-10T22:49:36.419Z,13.08
2023-05-10T22:52:03.593Z,13.09
2023-05-10T22:54:30.518Z,13.09
2023-05-10T22:56:57.523Z,13.08
2023-05-10T22:59:24.451Z,13.05
2023-05-10T23:01:51.382Z,13.03
2023-05-10T23:04:18.423Z,13.04
2023-05-10T23:06:46.137Z,13.02
2023-05-10T23:09:13.041Z,13.02
2023-05-10T23:11:40.156Z,13.01
2023-05-10T23:14:07.352Z,13.03
2023-05-10T23:16:34.527Z,13.08
2023-05-10T23:19:01.740Z,13.02
2023-05-10T23:21:32.034Z,12.99
2023-05-10T23:23:59.447Z,13.11
2023-05-10T23:26:26.468Z,13.02
2023-05-10T23:28:53.382Z,12.97
2023-05-10T23:31:20.333Z,12.99
2023-05-10T23:33:47.322Z,12.97
2023-05-10T23:36:14.426Z,12.94
2023-05-10T23:38:41.585Z,12.96
2023-05-10T23:41:08.506Z,12.96
2023-05-10T23:43:35.383Z,12.95
2023-05-10T23:46:02.394Z,12.92
2023-05-10T23:48:29.574Z,12.93
2023-05-10T23:50:56.533Z,12.91
2023-05-10T23:53:23.448Z,12.87
2023-05-10T23:55:50.418Z,12.87
2023-05-10T23:58:17.421Z,12.89
